Time;durP1;ratioP1;P1;durP2;ratioP2;P2;SDS_P1;SDS_P2;PMS_P1;PMS_P2;Temp;Humidity;BMP_temperature;BMP_pressure;BME280_temperature;BME280_humidity;BME280_pressure;Samples;Min_cycle;Max_cycle;Signal;HPM_P1;HPM_P2
2022/11/27 00:00:20;;;;;;;;;;;18.70;65.90;;;;;;5042020;28;1074;-69
2022/11/27 00:02:45;;;;;;;;;;;18.60;65.80;;;;;;5043196;28;868;-69
2022/11/27 00:05:11;;;;;;;;;;;18.60;65.80;;;;;;5043392;28;946;-69
2022/11/27 00:07:36;;;;;;;;;;;18.60;65.90;;;;;;5039207;28;1311;-69
2022/11/27 00:10:02;;;;;;;;;;;18.60;65.80;;;;;;5039512;28;875;-69
2022/11/27 00:12:28;;;;;;;;;;;18.60;65.90;;;;;;5040421;28;825;-69
2022/11/27 00:14:53;;;;;;;;;;;18.60;65.90;;;;;;5040474;28;1890;-69
2022/11/27 00:17:19;;;;;;;;;;;18.60;65.90;;;;;;5040403;28;1443;-69
2022/11/27 00:19:44;;;;;;;;;;;18.70;66.00;;;;;;5041674;28;1419;-69
2022/11/27 00:22:09;;;;;;;;;;;18.60;65.90;;;;;;5028439;28;1334;-69
2022/11/27 00:24:35;;;;;;;;;;;18.60;65.90;;;;;;5044668;28;888;-69
2022/11/27 00:27:01;;;;;;;;;;;18.60;65.90;;;;;;5039980;28;843;-69
2022/11/27 00:29:28;;;;;;;;;;;18.60;65.90;;;;;;5039067;28;4091;-69
2022/11/27 00:31:54;;;;;;;;;;;18.60;66.00;;;;;;5033690;28;847;-69
2022/11/27 00:34:19;;;;;;;;;;;18.60;66.00;;;;;;5015693;28;1914;-69
2022/11/27 00:36:45;;;;;;;;;;;18.70;66.10;;;;;;5041995;28;908;-69
2022/11/27 00:39:10;;;;;;;;;;;18.60;66.00;;;;;;5041652;28;1343;-69
2022/11/27 00:41:36;;;;;;;;;;;18.60;66.00;;;;;;5041591;28;1380;-69
2022/11/27 00:44:02;;;;;;;;;;;18.60;66.00;;;;;;5044403;28;863;-69
2022/11/27 00:46:28;;;;;;;;;;;18.60;66.00;;;;;;5041483;28;789;-69
2022/11/27 00:48:53;;;;;;;;;;;18.60;66.00;;;;;;5041367;28;1268;-69
2022/11/27 00:51:19;;;;;;;;;;;18.60;66.10;;;;;;5039438;28;798;-68
2022/11/27 00:53:45;;;;;;;;;;;18.60;66.00;;;;;;5030241;28;1531;-69
2022/11/27 00:56:14;;;;;;;;;;;18.60;66.00;;;;;;5030271;28;1906;-70
2022/11/27 00:58:40;;;;;;;;;;;18.60;66.10;;;;;;5039534;28;1692;-70
2022/11/27 01:01:06;;;;;;;;;;;18.60;66.10;;;;;;5039590;28;1342;-68
2022/11/27 01:03:31;;;;;;;;;;;18.60;66.00;;;;;;5031333;28;852;-69
2022/11/27 01:06:00;;;;;;;;;;;18.60;66.10;;;;;;5022639;28;856;-69
2022/11/27 01:08:26;;;;;;;;;;;18.60;66.10;;;;;;5039254;28;1300;-69
2022/11/27 01:10:55;;;;;;;;;;;18.60;66.10;;;;;;5037860;28;896;-70
2022/11/27 01:13:27;;;;;;;;;;;18.60;66.10;;;;;;5040924;28;987;-70
2022/11/27 01:16:03;;;;;;;;;;;18.60;66.10;;;;;;5039389;28;1906;-69
2022/11/27 01:18:29;;;;;;;;;;;18.60;66.10;;;;;;5037521;28;1335;-69
2022/11/27 01:20:54;;;;;;;;;;;18.60;66.10;;;;;;5044936;28;832;-69
2022/11/27 01:23:20;;;;;;;;;;;18.60;66.10;;;;;;5037654;28;2131;-69
2022/11/27 01:25:46;;;;;;;;;;;18.60;66.10;;;;;;5023807;28;907;-70
2022/11/27 01:28:11;;;;;;;;;;;18.60;66.10;;;;;;5040845;28;1276;-69
2022/11/27 01:30:37;;;;;;;;;;;18.60;66.20;;;;;;5024811;28;1027;-70
2022/11/27 01:33:02;;;;;;;;;;;18.60;66.20;;;;;;5039617;28;932;-70
2022/11/27 01:35:28;;;;;;;;;;;18.60;66.20;;;;;;5038060;28;1971;-70
2022/11/27 01:37:53;;;;;;;;;;;18.60;66.20;;;;;;5040997;28;1367;-69
2022/11/27 01:40:19;;;;;;;;;;;18.60;66.20;;;;;;5041189;28;1144;-69
2022/11/27 01:42:44;;;;;;;;;;;18.60;66.20;;;;;;5041738;28;904;-69
2022/11/27 01:45:10;;;;;;;;;;;18.60;66.20;;;;;;5037902;28;777;-68
2022/11/27 01:47:37;;;;;;;;;;;18.60;66.20;;;;;;5041707;28;1338;-68
2022/11/27 01:50:34;;;;;;;;;;;18.60;66.20;;;;;;5042257;28;869;-68
2022/11/27 01:53:05;;;;;;;;;;;18.60;66.20;;;;;;5010709;28;1386;-68
2022/11/27 01:55:35;;;;;;;;;;;18.60;66.20;;;;;;5039962;28;1967;-69
2022/11/27 01:58:04;;;;;;;;;;;18.60;66.20;;;;;;5038676;28;1362;-69
2022/11/27 02:00:29;;;;;;;;;;;18.50;66.20;;;;;;5038803;28;1679;-69
2022/11/27 02:02:55;;;;;;;;;;;18.60;66.20;;;;;;5040432;28;801;-69
2022/11/27 02:05:21;;;;;;;;;;;18.60;66.30;;;;;;5031048;28;920;-69
2022/11/27 02:07:47;;;;;;;;;;;18.60;66.20;;;;;;5036590;28;1339;-69
2022/11/27 02:10:12;;;;;;;;;;;18.60;66.30;;;;;;5036999;28;1022;-69
2022/11/27 02:12:40;;;;;;;;;;;18.50;66.30;;;;;;5021622;28;892;-69
2022/11/27 02:15:06;;;;;;;;;;;18.50;66.30;;;;;;5019858;28;1902;-69
2022/11/27 02:17:52;;;;;;;;;;;18.50;66.30;;;;;;5042229;28;1354;-69
2022/11/27 02:20:20;;;;;;;;;;;18.50;66.30;;;;;;5040331;28;1127;-69
2022/11/27 02:22:54;;;;;;;;;;;18.50;66.30;;;;;;5038747;28;820;-68
2022/11/27 02:25:38;;;;;;;;;;;18.50;66.30;;;;;;5040282;28;1022;-70
2022/11/27 02:28:24;;;;;;;;;;;18.50;66.30;;;;;;5038874;28;1351;-70
2022/11/27 02:30:50;;;;;;;;;;;18.50;66.30;;;;;;5019918;28;1169;-69
2022/11/27 02:33:17;;;;;;;;;;;18.50;66.30;;;;;;5023670;28;1050;-69
2022/11/27 02:35:50;;;;;;;;;;;18.50;66.30;;;;;;5020566;28;1914;-69
2022/11/27 02:38:16;;;;;;;;;;;18.50;66.30;;;;;;5037449;28;1228;-69
2022/11/27 02:40:51;;;;;;;;;;;18.50;66.30;;;;;;5038500;28;935;-69
2022/11/27 02:43:18;;;;;;;;;;;18.50;66.30;;;;;;5040125;28;881;-69
2022/11/27 02:45:47;;;;;;;;;;;18.50;66.30;;;;;;5030430;28;947;-69
2022/11/27 02:48:13;;;;;;;;;;;18.50;66.30;;;;;;5039439;28;1282;-69
2022/11/27 02:50:39;;;;;;;;;;;18.50;66.30;;;;;;5019058;28;842;-69
2022/11/27 02:53:09;;;;;;;;;;;18.50;66.30;;;;;;5039832;28;966;-69
2022/11/27 02:55:35;;;;;;;;;;;18.50;66.40;;;;;;5020134;28;1894;-69
2022/11/27 02:58:01;;;;;;;;;;;18.50;66.30;;;;;;5020387;28;1352;-69
2022/11/27 03:00:27;;;;;;;;;;;18.50;66.40;;;;;;5030204;28;1051;-69
2022/11/27 03:02:53;;;;;;;;;;;18.50;66.40;;;;;;5021799;28;1105;-69
2022/11/27 03:05:19;;;;;;;;;;;18.50;66.40;;;;;;5037567;28;1049;-69
2022/11/27 03:07:52;;;;;;;;;;;18.50;66.40;;;;;;5036672;28;1350;-69
2022/11/27 03:10:19;;;;;;;;;;;18.50;66.40;;;;;;5020055;28;869;-69
2022/11/27 03:12:45;;;;;;;;;;;18.50;66.40;;;;;;5039661;28;808;-69
2022/11/27 03:15:10;;;;;;;;;;;18.50;66.40;;;;;;5037741;28;1902;-69
2022/11/27 03:17:51;;;;;;;;;;;18.50;66.40;;;;;;5038463;28;1350;-69
2022/11/27 03:20:24;;;;;;;;;;;18.50;66.40;;;;;;5038718;28;1272;-68
2022/11/27 03:22:54;;;;;;;;;;;18.50;66.40;;;;;;5023819;28;1370;-68
2022/11/27 03:25:19;;;;;;;;;;;18.50;66.40;;;;;;5029812;28;863;-68
2022/11/27 03:27:47;;;;;;;;;;;18.50;66.40;;;;;;5038707;28;1360;-68
2022/11/27 03:30:13;;;;;;;;;;;18.50;66.40;;;;;;5040305;28;903;-69
2022/11/27 03:32:38;;;;;;;;;;;18.50;66.40;;;;;;5033718;28;816;-69
2022/11/27 03:35:04;;;;;;;;;;;18.50;66.40;;;;;;5028217;28;1983;-68
2022/11/27 03:37:30;;;;;;;;;;;18.50;66.40;;;;;;5030006;28;1410;-69
2022/11/27 03:39:55;;;;;;;;;;;18.50;66.40;;;;;;5029972;28;832;-68
2022/11/27 03:42:26;;;;;;;;;;;18.50;66.40;;;;;;5036254;28;946;-68
2022/11/27 03:44:58;;;;;;;;;;;18.50;66.40;;;;;;5038772;28;832;-69
2022/11/27 03:47:42;;;;;;;;;;;18.50;66.40;;;;;;5038056;28;1339;-70
2022/11/27 03:50:07;;;;;;;;;;;18.50;66.50;;;;;;5038036;28;819;-70
2022/11/27 03:52:34;;;;;;;;;;;18.50;66.40;;;;;;5039394;28;970;-69
2022/11/27 03:55:08;;;;;;;;;;;18.50;66.40;;;;;;5021350;28;1933;-70
2022/11/27 03:57:36;;;;;;;;;;;18.50;66.40;;;;;;5022139;28;1446;-70
2022/11/27 04:00:03;;;;;;;;;;;18.50;66.50;;;;;;5037683;28;1050;-70
2022/11/27 04:02:31;;;;;;;;;;;18.50;66.50;;;;;;5022609;28;1095;-70
2022/11/27 04:04:57;;;;;;;;;;;18.50;66.40;;;;;;5039478;28;1180;-70
2022/11/27 04:07:22;;;;;;;;;;;18.50;66.50;;;;;;5021224;28;1275;-69
2022/11/27 04:09:47;;;;;;;;;;;18.50;66.50;;;;;;5037953;28;1038;-68
2022/11/27 04:12:13;;;;;;;;;;;18.50;66.50;;;;;;5040405;28;808;-68
2022/11/27 04:14:38;;;;;;;;;;;18.50;66.50;;;;;;5040937;28;1965;-68
2022/11/27 04:17:04;;;;;;;;;;;18.50;66.50;;;;;;5041800;28;1317;-68
2022/11/27 04:19:29;;;;;;;;;;;18.50;66.50;;;;;;5040779;28;1350;-68
2022/11/27 04:21:55;;;;;;;;;;;18.50;66.50;;;;;;5041271;28;851;-68
2022/11/27 04:24:20;;;;;;;;;;;18.50;66.50;;;;;;5045602;28;895;-68
2022/11/27 04:26:46;;;;;;;;;;;18.50;66.50;;;;;;5040410;28;891;-68
2022/11/27 04:29:11;;;;;;;;;;;18.50;66.50;;;;;;5043101;28;1257;-68
2022/11/27 04:31:37;;;;;;;;;;;18.50;66.50;;;;;;5042829;28;859;-68
2022/11/27 04:34:02;;;;;;;;;;;18.50;66.50;;;;;;5042803;28;927;-68
2022/11/27 04:36:27;;;;;;;;;;;18.50;66.50;;;;;;5044462;28;1969;-70
2022/11/27 04:38:53;;;;;;;;;;;18.50;66.50;;;;;;5042541;28;1378;-69
2022/11/27 04:41:18;;;;;;;;;;;18.50;66.50;;;;;;5045234;28;896;-68
2022/11/27 04:43:44;;;;;;;;;;;18.50;66.50;;;;;;5039619;28;852;-68
2022/11/27 04:46:09;;;;;;;;;;;18.50;66.50;;;;;;5042350;28;886;-68
2022/11/27 04:48:35;;;;;;;;;;;18.50;67.30;;;;;;5024214;28;1372;-68
2022/11/27 04:51:00;;;;;;;;;;;18.50;66.50;;;;;;5040042;28;934;-68
2022/11/27 04:53:26;;;;;;;;;;;18.50;66.60;;;;;;5042368;28;1169;-68
2022/11/27 04:55:51;;;;;;;;;;;18.50;66.50;;;;;;5039378;28;1973;-69
2022/11/27 04:58:17;;;;;;;;;;;18.50;66.60;;;;;;5041373;28;1296;-68
2022/11/27 05:00:42;;;;;;;;;;;18.50;66.50;;;;;;5041819;28;931;-68
2022/11/27 05:03:08;;;;;;;;;;;18.50;66.60;;;;;;5041949;28;1066;-68
2022/11/27 05:05:33;;;;;;;;;;;18.50;66.50;;;;;;5042095;28;872;-68
2022/11/27 05:07:58;;;;;;;;;;;18.50;66.50;;;;;;5039030;28;1346;-69
2022/11/27 05:10:24;;;;;;;;;;;18.50;66.60;;;;;;5043219;28;1029;-70
2022/11/27 05:12:49;;;;;;;;;;;18.50;66.50;;;;;;5040915;28;847;-70
2022/11/27 05:15:15;;;;;;;;;;;18.50;66.50;;;;;;5039834;28;1967;-70
2022/11/27 05:17:40;;;;;;;;;;;18.50;66.50;;;;;;5044340;28;1289;-69
2022/11/27 05:20:06;;;;;;;;;;;18.50;66.40;;;;;;5038527;28;1054;-70
2022/11/27 05:22:32;;;;;;;;;;;18.50;66.40;;;;;;5043543;28;892;-69
2022/11/27 05:24:57;;;;;;;;;;;18.50;66.30;;;;;;5039187;28;832;-69
2022/11/27 05:27:23;;;;;;;;;;;18.50;66.30;;;;;;5042030;28;1359;-68
2022/11/27 05:29:48;;;;;;;;;;;18.50;66.20;;;;;;5044486;28;876;-68
2022/11/27 05:32:14;;;;;;;;;;;18.60;66.20;;;;;;5041446;28;920;-69
2022/11/27 05:34:39;;;;;;;;;;;18.60;66.10;;;;;;5038300;28;1963;-68
2022/11/27 05:37:05;;;;;;;;;;;18.60;66.00;;;;;;5038435;28;1042;-68
2022/11/27 05:39:30;;;;;;;;;;;18.60;66.00;;;;;;5039026;28;1273;-68
2022/11/27 05:41:55;;;;;;;;;;;18.70;66.00;;;;;;5038361;28;879;-67
2022/11/27 05:44:21;;;;;;;;;;;18.70;65.90;;;;;;5042875;28;861;-68
2022/11/27 05:46:46;;;;;;;;;;;18.60;65.80;;;;;;5043370;28;915;-69
2022/11/27 05:49:12;;;;;;;;;;;18.70;65.80;;;;;;5040130;28;1253;-69
2022/11/27 05:51:38;;;;;;;;;;;18.70;65.80;;;;;;5025715;28;880;-68
2022/11/27 05:54:03;;;;;;;;;;;18.70;65.70;;;;;;5021160;28;805;-68
2022/11/27 05:56:29;;;;;;;;;;;18.70;65.70;;;;;;5038486;28;1894;-68
2022/11/27 05:58:54;;;;;;;;;;;18.70;65.70;;;;;;5038246;28;1774;-69
2022/11/27 06:01:20;;;;;;;;;;;18.70;65.60;;;;;;5038471;28;855;-68
2022/11/27 06:03:45;;;;;;;;;;;18.70;65.60;;;;;;5038099;28;927;-69
2022/11/27 06:06:12;;;;;;;;;;;18.70;65.60;;;;;;5039080;28;1026;-70
2022/11/27 06:08:38;;;;;;;;;;;18.70;65.50;;;;;;5024353;28;1281;-70
2022/11/27 06:11:07;;;;;;;;;;;18.70;65.50;;;;;;5039360;28;915;-70
2022/11/27 06:13:33;;;;;;;;;;;18.80;65.50;;;;;;5024113;28;1489;-70
2022/11/27 06:16:02;;;;;;;;;;;18.80;65.50;;;;;;5024910;28;1902;-70
2022/11/27 06:18:27;;;;;;;;;;;18.80;65.50;;;;;;5038320;28;1380;-70
2022/11/27 06:20:53;;;;;;;;;;;18.80;65.50;;;;;;5038186;28;1069;-70
2022/11/27 06:23:18;;;;;;;;;;;18.80;65.40;;;;;;5040460;28;789;-70
2022/11/27 06:25:44;;;;;;;;;;;18.80;65.50;;;;;;5037464;28;868;-70
2022/11/27 06:28:09;;;;;;;;;;;18.80;65.50;;;;;;5038685;28;1272;-70
2022/11/27 06:30:36;;;;;;;;;;;18.80;65.40;;;;;;5040992;28;883;-68
2022/11/27 06:33:01;;;;;;;;;;;18.80;65.40;;;;;;5040453;28;915;-68
2022/11/27 06:35:26;;;;;;;;;;;18.80;65.50;;;;;;5037902;28;1918;-68
2022/11/27 06:37:52;;;;;;;;;;;18.80;65.40;;;;;;5037432;28;1390;-69
2022/11/27 06:40:17;;;;;;;;;;;18.80;65.40;;;;;;5039217;28;839;-70
2022/11/27 06:42:43;;;;;;;;;;;18.80;65.40;;;;;;5037169;28;783;-68
2022/11/27 06:45:09;;;;;;;;;;;18.80;65.40;;;;;;5037292;28;926;-68
2022/11/27 06:47:34;;;;;;;;;;;18.80;65.40;;;;;;5038183;28;2219;-69
2022/11/27 06:50:00;;;;;;;;;;;18.80;65.40;;;;;;5042057;28;1385;-69
2022/11/27 06:52:25;;;;;;;;;;;18.80;65.50;;;;;;5046547;28;1352;-69
2022/11/27 06:54:50;;;;;;;;;;;18.80;65.40;;;;;;5038569;28;1902;-69
2022/11/27 06:57:16;;;;;;;;;;;18.80;65.40;;;;;;5039853;28;1273;-70
2022/11/27 06:59:41;;;;;;;;;;;18.80;65.50;;;;;;5037127;28;860;-71
2022/11/27 07:02:09;;;;;;;;;;;18.80;65.50;;;;;;5037439;28;841;-69
2022/11/27 07:04:35;;;;;;;;;;;18.80;65.50;;;;;;5021057;28;887;-69
2022/11/27 07:07:00;;;;;;;;;;;18.70;65.40;;;;;;5023205;28;923;-69
2022/11/27 07:09:26;;;;;;;;;;;18.70;65.50;;;;;;5039308;28;1272;-70
2022/11/27 07:11:51;;;;;;;;;;;18.70;65.50;;;;;;5037265;28;924;-70
2022/11/27 07:14:17;;;;;;;;;;;18.70;65.50;;;;;;5036947;28;946;-70
2022/11/27 07:16:42;;;;;;;;;;;18.70;65.50;;;;;;5041673;28;1957;-70
2022/11/27 07:19:09;;;;;;;;;;;18.70;65.50;;;;;;5037654;28;1347;-70
2022/11/27 07:21:35;;;;;;;;;;;18.70;65.60;;;;;;5032473;28;971;-71
2022/11/27 07:24:00;;;;;;;;;;;18.70;65.60;;;;;;5035644;28;1057;-71
2022/11/27 07:26:26;;;;;;;;;;;18.70;65.60;;;;;;5037591;28;911;-71
2022/11/27 07:28:52;;;;;;;;;;;18.70;65.60;;;;;;5035396;28;1249;-70
2022/11/27 07:31:18;;;;;;;;;;;18.70;65.70;;;;;;5038646;28;836;-69
2022/11/27 07:33:44;;;;;;;;;;;18.70;65.70;;;;;;5038120;28;895;-69
2022/11/27 07:36:16;;;;;;;;;;;18.70;65.70;;;;;;5035942;28;1906;-70
2022/11/27 07:38:41;;;;;;;;;;;18.70;65.70;;;;;;5036059;28;1229;-71
2022/11/27 07:41:07;;;;;;;;;;;18.70;65.70;;;;;;5037277;28;954;-70
2022/11/27 07:43:32;;;;;;;;;;;18.70;65.80;;;;;;5029591;28;801;-70
2022/11/27 07:45:58;;;;;;;;;;;18.70;65.80;;;;;;5036759;28;808;-69
2022/11/27 07:48:23;;;;;;;;;;;18.70;65.80;;;;;;5036713;28;1275;-70
2022/11/27 07:50:49;;;;;;;;;;;18.60;65.70;;;;;;5040620;28;863;-69
2022/11/27 07:53:14;;;;;;;;;;;18.60;65.70;;;;;;5042484;28;950;-69
2022/11/27 07:55:40;;;;;;;;;;;18.60;65.70;;;;;;5041851;28;1964;-69
2022/11/27 07:58:06;;;;;;;;;;;18.60;65.70;;;;;;5043147;28;1212;-70
2022/11/27 08:00:31;;;;;;;;;;;18.60;65.80;;;;;;5032758;28;892;-69
2022/11/27 08:03:00;;;;;;;;;;;18.60;65.80;;;;;;5023554;28;884;-69
2022/11/27 08:05:25;;;;;;;;;;;18.60;65.80;;;;;;5043113;28;876;-68
2022/11/27 08:07:51;;;;;;;;;;;18.60;65.80;;;;;;5038800;28;2176;-69
2022/11/27 08:10:16;;;;;;;;;;;18.60;65.90;;;;;;5041431;28;1392;-68
2022/11/27 08:12:42;;;;;;;;;;;18.60;65.80;;;;;;5042332;28;1373;-69
2022/11/27 08:15:08;;;;;;;;;;;18.60;65.90;;;;;;5031962;28;1902;-69
2022/11/27 08:17:33;;;;;;;;;;;18.60;65.90;;;;;;5041845;28;1368;-69
2022/11/27 08:19:58;;;;;;;;;;;18.60;65.90;;;;;;5042049;28;916;-69
2022/11/27 08:22:24;;;;;;;;;;;18.60;65.90;;;;;;5043812;28;875;-69
2022/11/27 08:24:50;;;;;;;;;;;18.70;66.00;;;;;;5047830;28;1107;-68
2022/11/27 08:27:15;;;;;;;;;;;18.60;65.90;;;;;;5042528;28;1284;-69
2022/11/27 08:29:41;;;;;;;;;;;18.60;65.90;;;;;;5042505;28;1061;-71
2022/11/27 08:32:06;;;;;;;;;;;18.60;65.80;;;;;;5029819;28;874;-68
2022/11/27 08:34:32;;;;;;;;;;;18.60;65.80;;;;;;5041011;28;1967;-68
2022/11/27 08:36:57;;;;;;;;;;;18.70;65.90;;;;;;5041099;28;1178;-68
2022/11/27 08:39:25;;;;;;;;;;;18.70;65.80;;;;;;5044624;28;1193;-68
2022/11/27 08:41:50;;;;;;;;;;;18.70;65.70;;;;;;5041690;28;792;-68
2022/11/27 08:44:16;;;;;;;;;;;18.70;65.80;;;;;;5041398;28;915;-69
2022/11/27 08:46:41;;;;;;;;;;;18.70;65.70;;;;;;5043337;28;918;-68
2022/11/27 08:49:07;;;;;;;;;;;18.70;65.70;;;;;;5037518;28;1291;-71
2022/11/27 08:51:32;;;;;;;;;;;18.70;65.70;;;;;;5038828;28;2099;-69
2022/11/27 08:53:58;;;;;;;;;;;18.70;65.60;;;;;;5041668;28;1032;-69
2022/11/27 08:56:24;;;;;;;;;;;18.70;65.60;;;;;;5041265;28;1898;-69
2022/11/27 08:58:50;;;;;;;;;;;18.70;65.60;;;;;;5043552;28;1339;-69
2022/11/27 09:01:16;;;;;;;;;;;18.70;65.60;;;;;;5037928;28;828;-69
2022/11/27 09:03:41;;;;;;;;;;;18.70;65.60;;;;;;5042602;28;809;-69
2022/11/27 09:06:08;;;;;;;;;;;18.80;65.60;;;;;;5036386;28;872;-69
2022/11/27 09:08:33;;;;;;;;;;;18.80;65.50;;;;;;5039991;28;1276;-69
2022/11/27 09:11:00;;;;;;;;;;;18.80;65.50;;;;;;5026338;28;856;-69
2022/11/27 09:13:25;;;;;;;;;;;18.80;65.50;;;;;;5043873;28;1444;-69
2022/11/27 09:15:51;;;;;;;;;;;18.80;65.50;;;;;;5023209;28;1989;-69
2022/11/27 09:18:16;;;;;;;;;;;18.80;65.50;;;;;;5042442;28;1400;-69
2022/11/27 09:20:42;;;;;;;;;;;18.80;65.50;;;;;;5042576;28;958;-71
2022/11/27 09:23:07;;;;;;;;;;;18.80;65.40;;;;;;5038931;28;1046;-71
2022/11/27 09:25:33;;;;;;;;;;;18.80;65.40;;;;;;5039883;28;864;-69
2022/11/27 09:27:58;;;;;;;;;;;18.80;65.40;;;;;;5036991;28;1351;-71
2022/11/27 09:30:23;;;;;;;;;;;18.80;65.40;;;;;;5037363;28;852;-70
2022/11/27 09:32:49;;;;;;;;;;;18.80;65.40;;;;;;5041422;28;923;-70
2022/11/27 09:35:14;;;;;;;;;;;18.80;65.30;;;;;;5040495;28;1914;-70
2022/11/27 09:37:40;;;;;;;;;;;18.80;65.30;;;;;;5040319;28;1352;-70
2022/11/27 09:40:06;;;;;;;;;;;18.80;65.20;;;;;;5039525;28;855;-71
2022/11/27 09:42:35;;;;;;;;;;;18.80;65.20;;;;;;5037686;28;916;-70
2022/11/27 09:45:00;;;;;;;;;;;18.80;65.20;;;;;;5039415;28;873;-69
2022/11/27 09:47:31;;;;;;;;;;;18.80;65.20;;;;;;5029311;28;1248;-69
2022/11/27 09:50:00;;;;;;;;;;;18.80;66.00;;;;;;5038990;28;927;-68
2022/11/27 09:52:28;;;;;;;;;;;18.80;65.10;;;;;;5037551;28;940;-70
2022/11/27 09:55:00;;;;;;;;;;;18.80;65.20;;;;;;5039830;28;1910;-70
2022/11/27 09:57:33;;;;;;;;;;;18.90;65.20;;;;;;5037307;28;1641;-70
2022/11/27 10:00:01;;;;;;;;;;;18.80;65.10;;;;;;5040690;28;1465;-70
2022/11/27 10:02:27;;;;;;;;;;;18.80;65.10;;;;;;5019651;28;1312;-70
2022/11/27 10:04:53;;;;;;;;;;;18.80;65.10;;;;;;5042241;28;1462;-70
2022/11/27 10:07:32;;;;;;;;;;;18.90;65.10;;;;;;5039834;28;1475;-70
2022/11/27 10:10:07;;;;;;;;;;;18.90;65.10;;;;;;5039757;28;1336;-70
2022/11/27 10:12:35;;;;;;;;;;;18.90;65.10;;;;;;5038704;28;1393;-71
2022/11/27 10:15:02;;;;;;;;;;;18.90;65.10;;;;;;5043610;28;1964;-71
2022/11/27 10:17:38;;;;;;;;;;;18.90;65.10;;;;;;5039159;28;1355;-70
2022/11/27 10:20:30;;;;;;;;;;;18.90;65.10;;;;;;5023942;28;893;-69
2022/11/27 10:22:58;;;;;;;;;;;18.90;65.10;;;;;;5029676;28;1271;-68
2022/11/27 10:25:26;;;;;;;;;;;18.90;65.10;;;;;;5038913;28;883;-70
2022/11/27 10:27:52;;;;;;;;;;;18.90;65.10;;;;;;5026576;28;1203;-71
2022/11/27 10:30:18;;;;;;;;;;;18.90;65.10;;;;;;5036526;28;841;-70
2022/11/27 10:32:44;;;;;;;;;;;18.90;65.10;;;;;;5034932;28;1057;-70
2022/11/27 10:35:20;;;;;;;;;;;18.90;65.10;;;;;;5036681;28;1902;-70
2022/11/27 10:37:47;;;;;;;;;;;18.90;65.10;;;;;;5037204;28;1292;-70
2022/11/27 10:40:13;;;;;;;;;;;18.90;65.10;;;;;;5040413;28;1061;-70
2022/11/27 10:42:38;;;;;;;;;;;18.90;65.10;;;;;;5036662;28;830;-70
2022/11/27 10:45:20;;;;;;;;;;;18.80;65.10;;;;;;5039230;28;1263;-70
2022/11/27 10:47:47;;;;;;;;;;;18.80;65.20;;;;;;5030048;28;1362;-70
2022/11/27 10:50:13;;;;;;;;;;;18.80;65.10;;;;;;5030999;28;849;-70
2022/11/27 10:52:43;;;;;;;;;;;18.80;65.10;;;;;;5039847;28;954;-70
2022/11/27 10:55:11;;;;;;;;;;;18.80;65.20;;;;;;5038667;28;1906;-70
2022/11/27 10:57:39;;;;;;;;;;;18.80;65.20;;;;;;5029243;28;1291;-70
2022/11/27 11:00:04;;;;;;;;;;;18.80;65.20;;;;;;5021992;28;872;-70
2022/11/27 11:02:31;;;;;;;;;;;18.80;65.20;;;;;;5040723;28;871;-70
2022/11/27 11:04:56;;;;;;;;;;;18.80;65.20;;;;;;5040244;28;929;-70
2022/11/27 11:07:23;;;;;;;;;;;18.80;65.20;;;;;;5038904;28;1253;-70
2022/11/27 11:09:48;;;;;;;;;;;18.80;65.20;;;;;;5035601;28;867;-70
2022/11/27 11:12:15;;;;;;;;;;;18.80;65.20;;;;;;5029275;28;841;-70
2022/11/27 11:14:49;;;;;;;;;;;18.80;65.20;;;;;;5040983;28;1901;-70
2022/11/27 11:17:19;;;;;;;;;;;18.80;65.20;;;;;;5038179;28;1328;-68
2022/11/27 11:19:45;;;;;;;;;;;18.80;65.20;;;;;;5038442;28;1371;-70
2022/11/27 11:22:11;;;;;;;;;;;18.80;65.20;;;;;;5041231;28;1386;-69
2022/11/27 11:24:38;;;;;;;;;;;18.80;65.20;;;;;;5041865;28;1404;-69
2022/11/27 11:27:05;;;;;;;;;;;18.80;65.20;;;;;;5043479;28;1552;-69
2022/11/27 11:29:35;;;;;;;;;;;18.80;65.20;;;;;;5045571;28;1272;-68
2022/11/27 11:32:18;;;;;;;;;;;18.80;65.20;;;;;;5043458;28;1298;-69
2022/11/27 11:34:50;;;;;;;;;;;18.80;65.20;;;;;;5045655;28;1914;-69
2022/11/27 11:37:25;;;;;;;;;;;18.80;65.20;;;;;;5024408;28;1410;-71
2022/11/27 11:39:53;;;;;;;;;;;18.80;65.20;;;;;;5045308;28;1407;-69
2022/11/27 11:42:19;;;;;;;;;;;18.80;65.20;;;;;;5043724;28;1385;-70
2022/11/27 11:44:55;;;;;;;;;;;18.80;65.20;;;;;;5044749;28;1390;-68
2022/11/27 11:47:23;;;;;;;;;;;18.80;65.20;;;;;;5030269;28;1514;-69
2022/11/27 11:49:49;;;;;;;;;;;18.80;65.20;;;;;;5022355;28;1347;-69
2022/11/27 11:52:23;;;;;;;;;;;18.80;65.20;;;;;;5042510;28;1426;-69
2022/11/27 11:54:52;;;;;;;;;;;18.80;65.20;;;;;;5045080;28;1943;-70
2022/11/27 11:57:34;;;;;;;;;;;18.80;65.20;;;;;;5043365;28;1391;-68
2022/11/27 11:59:59;;;;;;;;;;;18.80;65.20;;;;;;5026343;28;1344;-69
2022/11/27 12:02:30;;;;;;;;;;;18.80;65.20;;;;;;5039171;28;1191;-68
2022/11/27 12:05:16;;;;;;;;;;;18.80;65.20;;;;;;5039017;28;1161;-68
2022/11/27 12:07:58;;;;;;;;;;;18.80;65.20;;;;;;5004120;28;2067;-71
2022/11/27 12:10:27;;;;;;;;;;;18.80;65.20;;;;;;5041766;28;1384;-71
2022/11/27 12:13:01;;;;;;;;;;;18.80;65.20;;;;;;5041826;28;1448;-71
2022/11/27 12:15:35;;;;;;;;;;;18.80;65.20;;;;;;5041956;28;1989;-71
2022/11/27 12:18:07;;;;;;;;;;;18.80;65.20;;;;;;5041256;28;1433;-71
2022/11/27 12:20:34;;;;;;;;;;;18.80;65.20;;;;;;5042360;28;1466;-71
2022/11/27 12:23:00;;;;;;;;;;;18.80;65.20;;;;;;5041491;28;1461;-71
2022/11/27 12:25:37;;;;;;;;;;;18.80;65.30;;;;;;5041718;28;876;-71
2022/11/27 12:28:11;;;;;;;;;;;18.80;65.30;;;;;;5038704;28;1901;-71
2022/11/27 12:30:40;;;;;;;;;;;18.80;65.30;;;;;;5042845;28;1045;-71
2022/11/27 12:33:41;;;;;;;;;;;18.80;65.30;;;;;;5025090;28;993;-71
2022/11/27 12:36:06;;;;;;;;;;;18.80;65.30;;;;;;4989334;28;1945;-70
2022/11/27 12:38:32;;;;;;;;;;;18.80;65.30;;;;;;5031160;28;1328;-70
2022/11/27 12:41:00;;;;;;;;;;;18.70;65.20;;;;;;5040718;28;840;-70
2022/11/27 12:43:26;;;;;;;;;;;18.80;65.30;;;;;;5042135;28;1045;-70
2022/11/27 12:46:03;;;;;;;;;;;18.80;65.30;;;;;;5044279;28;872;-70
2022/11/27 12:48:39;;;;;;;;;;;18.80;65.30;;;;;;5023237;28;2107;-70
2022/11/27 12:51:10;;;;;;;;;;;18.80;65.30;;;;;;5020377;28;1128;-71
2022/11/27 12:53:41;;;;;;;;;;;18.80;65.30;;;;;;5043727;28;1456;-70
2022/11/27 12:56:12;;;;;;;;;;;18.80;65.30;;;;;;5036956;28;1961;-72
2022/11/27 12:58:40;;;;;;;;;;;18.80;65.30;;;;;;5027089;28;1894;-72
2022/11/27 13:01:06;;;;;;;;;;;18.80;65.20;;;;;;5040743;28;1127;-71
2022/11/27 13:03:47;;;;;;;;;;;18.80;65.30;;;;;;5030446;28;2178;-71
2022/11/27 13:06:13;;;;;;;;;;;18.80;65.20;;;;;;5041019;28;1901;-71
2022/11/27 13:08:42;;;;;;;;;;;18.80;65.20;;;;;;5040920;28;1427;-71
2022/11/27 13:11:09;;;;;;;;;;;18.80;65.20;;;;;;5040100;28;850;-71
2022/11/27 13:13:34;;;;;;;;;;;18.80;65.20;;;;;;5040240;28;1133;-71
2022/11/27 13:16:02;;;;;;;;;;;18.80;65.20;;;;;;5038912;28;1906;-70
2022/11/27 13:18:48;;;;;;;;;;;18.80;65.20;;;;;;5024107;28;1347;-71
2022/11/27 13:21:14;;;;;;;;;;;18.80;65.20;;;;;;5043209;28;1781;-71
2022/11/27 13:23:39;;;;;;;;;;;18.80;65.20;;;;;;5021602;28;1039;-71
2022/11/27 13:26:06;;;;;;;;;;;18.80;65.20;;;;;;5040641;28;830;-71
2022/11/27 13:28:36;;;;;;;;;;;18.80;65.10;;;;;;5037428;28;1375;-71
2022/11/27 13:31:02;;;;;;;;;;;18.80;65.10;;;;;;5039762;28;1291;-71
2022/11/27 13:33:29;;;;;;;;;;;18.80;65.10;;;;;;5037935;28;983;-70
2022/11/27 13:35:55;;;;;;;;;;;18.80;65.00;;;;;;5029081;28;1910;-71
2022/11/27 13:38:21;;;;;;;;;;;18.90;65.10;;;;;;5040898;28;1382;-71
2022/11/27 13:40:48;;;;;;;;;;;18.90;65.10;;;;;;5042383;28;1531;-71
2022/11/27 13:43:23;;;;;;;;;;;18.90;65.10;;;;;;5036895;28;1420;-71
2022/11/27 13:45:48;;;;;;;;;;;18.90;65.10;;;;;;5040878;28;1333;-71
2022/11/27 13:48:25;;;;;;;;;;;18.90;65.00;;;;;;5030831;28;1395;-71
2022/11/27 13:50:51;;;;;;;;;;;18.90;65.00;;;;;;5029401;28;1370;-70
2022/11/27 13:53:16;;;;;;;;;;;18.90;65.00;;;;;;5024786;28;1402;-71
2022/11/27 13:55:51;;;;;;;;;;;18.90;65.00;;;;;;5040142;28;1910;-71
2022/11/27 13:58:26;;;;;;;;;;;18.90;65.00;;;;;;5035914;28;1480;-70
2022/11/27 14:00:52;;;;;;;;;;;18.90;65.00;;;;;;5038455;28;851;-70
2022/11/27 14:03:21;;;;;;;;;;;18.90;65.00;;;;;;5039442;28;808;-71
2022/11/27 14:05:47;;;;;;;;;;;18.90;64.90;;;;;;5039443;28;998;-71
2022/11/27 14:08:31;;;;;;;;;;;18.90;65.00;;;;;;5047294;28;1269;-71
2022/11/27 14:11:01;;;;;;;;;;;18.90;65.00;;;;;;5038346;28;1077;-71
2022/11/27 14:13:33;;;;;;;;;;;18.90;65.00;;;;;;5024919;28;1213;-69
2022/11/27 14:16:03;;;;;;;;;;;18.90;65.00;;;;;;5037945;28;1906;-70
2022/11/27 14:18:29;;;;;;;;;;;18.90;65.00;;;;;;5039605;28;1391;-70
2022/11/27 14:21:03;;;;;;;;;;;18.90;65.00;;;;;;5039802;28;1094;-70
2022/11/27 14:23:29;;;;;;;;;;;18.90;65.00;;;;;;5021975;28;983;-70
2022/11/27 14:26:13;;;;;;;;;;;18.90;65.00;;;;;;5038208;28;859;-69
2022/11/27 14:28:39;;;;;;;;;;;18.90;65.10;;;;;;5039218;28;1237;-70
2022/11/27 14:31:17;;;;;;;;;;;18.90;65.00;;;;;;5041257;28;1707;-70
2022/11/27 14:33:44;;;;;;;;;;;18.90;65.00;;;;;;5028012;28;1573;-70
2022/11/27 14:36:18;;;;;;;;;;;18.90;65.00;;;;;;5021265;28;1962;-70
2022/11/27 14:38:44;;;;;;;;;;;18.90;65.00;;;;;;5013733;28;1423;-71